sensor_id;sensor_type;location;lat;lon;timestamp;pressure;altitude;pressure_sealevel;temperature;humidity
51195;BME280;37259;49.972;19.850;2022-09-09T00:00:24;98220;;;17.6;100
51195;BME280;37259;49.972;19.850;2022-09-09T00:01:27;98220;;;17.6;100
51195;BME280;37259;49.972;19.850;2022-09-09T00:02:24;98220;;;17.7;100
51195;BME280;37259;49.972;19.850;2022-09-09T00:03:24;98220;;;17.7;100
51195;BME280;37259;49.972;19.850;2022-09-09T00:04:25;98220;;;17.7;100
51195;BME280;37259;49.972;19.850;2022-09-09T00:05:26;98230;;;17.7;100
51195;BME280;37259;49.972;19.850;2022-09-09T00:06:24;98230;;;17.7;100
51195;BME280;37259;49.972;19.850;2022-09-09T00:07:25;98220;;;17.7;100
51195;BME280;37259;49.972;19.850;2022-09-09T00:08:24;98220;;;17.7;100
51195;BME280;37259;49.972;19.850;2022-09-09T00:09:24;98220;;;17.7;100
51195;BME280;37259;49.972;19.850;2022-09-09T00:10:25;98220;;;17.7;100
51195;BME280;37259;49.972;19.850;2022-09-09T00:11:24;98220;;;17.7;100
51195;BME280;37259;49.972;19.850;2022-09-09T00:12:25;98220;;;17.7;100
51195;BME280;37259;49.972;19.850;2022-09-09T00:13:24;98220;;;17.6;100
51195;BME280;37259;49.972;19.850;2022-09-09T00:14:25;98220;;;17.6;100
51195;BME280;37259;49.972;19.850;2022-09-09T00:15:24;98220;;;17.7;100
51195;BME280;37259;49.972;19.850;2022-09-09T00:16:24;98220;;;17.7;100
51195;BME280;37259;49.972;19.850;2022-09-09T00:17:26;98220;;;17.7;100
51195;BME280;37259;49.972;19.850;2022-09-09T00:18:24;98220;;;17.7;100
51195;BME280;37259;49.972;19.850;2022-09-09T00:19:24;98220;;;17.7;100
51195;BME280;37259;49.972;19.850;2022-09-09T00:20:25;98220;;;17.6;100
51195;BME280;37259;49.972;19.850;2022-09-09T00:21:24;98220;;;17.6;100
51195;BME280;37259;49.972;19.850;2022-09-09T00:23:24;98220;;;17.6;100
51195;BME280;37259;49.972;19.850;2022-09-09T00:24:24;98220;;;17.6;100
51195;BME280;37259;49.972;19.850;2022-09-09T00:25:29;98220;;;17.5;100
51195;BME280;37259;49.972;19.850;2022-09-09T00:26:25;98220;;;17.5;100
51195;BME280;37259;49.972;19.850;2022-09-09T00:27:25;98220;;;17.6;100
51195;BME280;37259;49.972;19.850;2022-09-09T00:28:24;98220;;;17.5;100
51195;BME280;37259;49.972;19.850;2022-09-09T00:29:25;98220;;;17.5;100
51195;BME280;37259;49.972;19.850;2022-09-09T00:30:24;98220;;;17.6;100
51195;BME280;37259;49.972;19.850;2022-09-09T00:31:25;98220;;;17.6;100
51195;BME280;37259;49.972;19.850;2022-09-09T00:32:24;98220;;;17.6;100
51195;BME280;37259;49.972;19.850;2022-09-09T00:33:23;98220;;;17.6;100
51195;BME280;37259;49.972;19.850;2022-09-09T00:34:24;98220;;;17.6;100
51195;BME280;37259;49.972;19.850;2022-09-09T00:35:24;98220;;;17.6;100
51195;BME280;37259;49.972;19.850;2022-09-09T00:36:24;98230;;;17.6;100
51195;BME280;37259;49.972;19.850;2022-09-09T00:37:24;98230;;;17.6;100
51195;BME280;37259;49.972;19.850;2022-09-09T00:38:24;98230;;;17.6;100
51195;BME280;37259;49.972;19.850;2022-09-09T00:39:25;98230;;;17.6;100
51195;BME280;37259;49.972;19.850;2022-09-09T00:40:25;98230;;;17.6;100
51195;BME280;37259;49.972;19.850;2022-09-09T00:41:28;98230;;;17.6;100
51195;BME280;37259;49.972;19.850;2022-09-09T00:42:24;98230;;;17.6;100
51195;BME280;37259;49.972;19.850;2022-09-09T00:43:26;98230;;;17.5;100
51195;BME280;37259;49.972;19.850;2022-09-09T00:44:25;98230;;;17.5;100
51195;BME280;37259;49.972;19.850;2022-09-09T00:45:29;98240;;;17.5;100
51195;BME280;37259;49.972;19.850;2022-09-09T00:46:28;98240;;;17.5;100
51195;BME280;37259;49.972;19.850;2022-09-09T00:47:27;98240;;;17.5;100
51195;BME280;37259;49.972;19.850;2022-09-09T00:48:24;98240;;;17.5;100
51195;BME280;37259;49.972;19.850;2022-09-09T00:49:26;98240;;;17.5;100
51195;BME280;37259;49.972;19.850;2022-09-09T00:50:29;98240;;;17.5;100
51195;BME280;37259;49.972;19.850;2022-09-09T00:51:25;98240;;;17.5;100
51195;BME280;37259;49.972;19.850;2022-09-09T00:52:26;98240;;;17.5;100
51195;BME280;37259;49.972;19.850;2022-09-09T00:53:28;98240;;;17.5;100
51195;BME280;37259;49.972;19.850;2022-09-09T00:54:27;98240;;;17.5;100
51195;BME280;37259;49.972;19.850;2022-09-09T00:55:25;98240;;;17.5;100
51195;BME280;37259;49.972;19.850;2022-09-09T00:56:24;98240;;;17.5;100
51195;BME280;37259;49.972;19.850;2022-09-09T00:57:25;98240;;;17.5;100
51195;BME280;37259;49.972;19.850;2022-09-09T00:58:23;98240;;;17.5;100
51195;BME280;37259;49.972;19.850;2022-09-09T00:59:25;98240;;;17.5;100
51195;BME280;37259;49.972;19.850;2022-09-09T01:00:24;98240;;;17.5;100
51195;BME280;37259;49.972;19.850;2022-09-09T01:01:23;98240;;;17.5;100
51195;BME280;37259;49.972;19.850;2022-09-09T01:02:27;98240;;;17.5;100
51195;BME280;37259;49.972;19.850;2022-09-09T01:03:26;98240;;;17.5;100
51195;BME280;37259;49.972;19.850;2022-09-09T01:04:25;98240;;;17.5;100
51195;BME280;37259;49.972;19.850;2022-09-09T01:05:26;98240;;;17.5;100
51195;BME280;37259;49.972;19.850;2022-09-09T01:06:26;98240;;;17.5;100
51195;BME280;37259;49.972;19.850;2022-09-09T01:07:23;98240;;;17.4;100
51195;BME280;37259;49.972;19.850;2022-09-09T01:08:28;98240;;;17.4;100
51195;BME280;37259;49.972;19.850;2022-09-09T01:09:24;98240;;;17.5;100
51195;BME280;37259;49.972;19.850;2022-09-09T01:10:26;98240;;;17.5;100
51195;BME280;37259;49.972;19.850;2022-09-09T01:11:24;98240;;;17.5;100
51195;BME280;37259;49.972;19.850;2022-09-09T01:12:24;98240;;;17.5;100
51195;BME280;37259;49.972;19.850;2022-09-09T01:13:24;98240;;;17.5;100
51195;BME280;37259;49.972;19.850;2022-09-09T01:14:27;98240;;;17.5;100
51195;BME280;37259;49.972;19.850;2022-09-09T01:15:24;98250;;;17.5;100
51195;BME280;37259;49.972;19.850;2022-09-09T01:16:23;98250;;;17.5;100
51195;BME280;37259;49.972;19.850;2022-09-09T01:17:24;98250;;;17.5;100
51195;BME280;37259;49.972;19.850;2022-09-09T01:18:23;98250;;;17.5;100
51195;BME280;37259;49.972;19.850;2022-09-09T01:19:24;98250;;;17.4;100
51195;BME280;37259;49.972;19.850;2022-09-09T01:20:24;98250;;;17.4;100
51195;BME280;37259;49.972;19.850;2022-09-09T01:21:25;98250;;;17.4;100
51195;BME280;37259;49.972;19.850;2022-09-09T01:22:26;98250;;;17.4;100
51195;BME280;37259;49.972;19.850;2022-09-09T01:23:29;98250;;;17.4;100
51195;BME280;37259;49.972;19.850;2022-09-09T01:24:25;98250;;;17.4;100
51195;BME280;37259;49.972;19.850;2022-09-09T01:26:25;98250;;;17.4;100
51195;BME280;37259;49.972;19.850;2022-09-09T01:26:28;98250;;;17.4;100
51195;BME280;37259;49.972;19.850;2022-09-09T01:27:23;98250;;;17.4;100
51195;BME280;37259;49.972;19.850;2022-09-09T01:28:25;98250;;;17.4;100
51195;BME280;37259;49.972;19.850;2022-09-09T01:29:24;98260;;;17.3;100
51195;BME280;37259;49.972;19.850;2022-09-09T01:30:23;98260;;;17.3;100
51195;BME280;37259;49.972;19.850;2022-09-09T01:31:26;98260;;;17.2;100
51195;BME280;37259;49.972;19.850;2022-09-09T01:32:41;98260;;;17.2;100
51195;BME280;37259;49.972;19.850;2022-09-09T01:33:23;98260;;;17.3;100
51195;BME280;37259;49.972;19.850;2022-09-09T01:34:24;98260;;;17.3;100
51195;BME280;37259;49.972;19.850;2022-09-09T01:35:28;98260;;;17.1;100
51195;BME280;37259;49.972;19.850;2022-09-09T01:36:25;98260;;;17.1;100
51195;BME280;37259;49.972;19.850;2022-09-09T01:37:23;98260;;;17.1;100
51195;BME280;37259;49.972;19.850;2022-09-09T01:38:23;98270;;;17.1;100
51195;BME280;37259;49.972;19.850;2022-09-09T01:39:23;98270;;;17.1;100
51195;BME280;37259;49.972;19.850;2022-09-09T01:40:24;98270;;;17.1;100
51195;BME280;37259;49.972;19.850;2022-09-09T01:41:23;98270;;;17.1;100
51195;BME280;37259;49.972;19.850;2022-09-09T01:42:23;98270;;;17.1;100
51195;BME280;37259;49.972;19.850;2022-09-09T01:43:23;98270;;;17;100
51195;BME280;37259;49.972;19.850;2022-09-09T01:44:24;98270;;;17;100
51195;BME280;37259;49.972;19.850;2022-09-09T01:45:24;98280;;;17;100
51195;BME280;37259;49.972;19.850;2022-09-09T01:46:23;98280;;;17;100
51195;BME280;37259;49.972;19.850;2022-09-09T01:47:23;98280;;;16.9;100
51195;BME280;37259;49.972;19.850;2022-09-09T01:48:23;98280;;;16.9;100
51195;BME280;37259;49.972;19.850;2022-09-09T01:49:23;98280;;;16.9;100
51195;BME280;37259;49.972;19.850;2022-09-09T01:50:23;98280;;;16.9;100
51195;BME280;37259;49.972;19.850;2022-09-09T01:51:23;98280;;;16.9;100
51195;BME280;37259;49.972;19.850;2022-09-09T01:52:23;98280;;;16.9;100
51195;BME280;37259;49.972;19.850;2022-09-09T01:53:23;98290;;;16.9;100
51195;BME280;37259;49.972;19.850;2022-09-09T01:54:24;98290;;;16.9;100
51195;BME280;37259;49.972;19.850;2022-09-09T01:55:26;98290;;;16.8;100
51195;BME280;37259;49.972;19.850;2022-09-09T01:56:27;98290;;;16.8;100
51195;BME280;37259;49.972;19.850;2022-09-09T01:57:24;98290;;;16.8;100
51195;BME280;37259;49.972;19.850;2022-09-09T01:58:26;98290;;;16.8;100
51195;BME280;37259;49.972;19.850;2022-09-09T01:59:25;98290;;;16.8;100
51195;BME280;37259;49.972;19.850;2022-09-09T02:00:23;98290;;;16.8;100
51195;BME280;37259;49.972;19.850;2022-09-09T02:01:25;98290;;;16.8;100
51195;BME280;37259;49.972;19.850;2022-09-09T02:02:24;98300;;;16.8;100
51195;BME280;37259;49.972;19.850;2022-09-09T02:03:24;98300;;;16.8;100
51195;BME280;37259;49.972;19.850;2022-09-09T02:04:27;98300;;;16.8;100
51195;BME280;37259;49.972;19.850;2022-09-09T02:05:26;98300;;;16.8;100
51195;BME280;37259;49.972;19.850;2022-09-09T02:06:25;98300;;;16.8;100
51195;BME280;37259;49.972;19.850;2022-09-09T02:07:28;98300;;;16.7;100
51195;BME280;37259;49.972;19.850;2022-09-09T02:08:24;98290;;;16.7;100
51195;BME280;37259;49.972;19.850;2022-09-09T02:09:24;98290;;;16.7;100
51195;BME280;37259;49.972;19.850;2022-09-09T02:10:24;98300;;;16.7;100
51195;BME280;37259;49.972;19.850;2022-09-09T02:11:24;98300;;;16.8;100
51195;BME280;37259;49.972;19.850;2022-09-09T02:12:23;98300;;;16.8;100
51195;BME280;37259;49.972;19.850;2022-09-09T02:13:23;98300;;;16.7;100
51195;BME280;37259;49.972;19.850;2022-09-09T02:14:24;98300;;;16.8;100
51195;BME280;37259;49.972;19.850;2022-09-09T02:15:25;98300;;;16.8;100
51195;BME280;37259;49.972;19.850;2022-09-09T02:23:23;98300;;;16.7;100
51195;BME280;37259;49.972;19.850;2022-09-09T02:24:23;98300;;;16.7;100
51195;BME280;37259;49.972;19.850;2022-09-09T02:25:24;98300;;;16.7;100
51195;BME280;37259;49.972;19.850;2022-09-09T02:26:23;98300;;;16.7;100
51195;BME280;37259;49.972;19.850;2022-09-09T02:27:23;98300;;;16.7;100
51195;BME280;37259;49.972;19.850;2022-09-09T02:28:24;98300;;;16.7;100
51195;BME280;37259;49.972;19.850;2022-09-09T02:29:24;98300;;;16.7;100
51195;BME280;37259;49.972;19.850;2022-09-09T02:30:23;98310;;;16.7;100
51195;BME280;37259;49.972;19.850;2022-09-09T02:31:24;98310;;;16.7;100
51195;BME280;37259;49.972;19.850;2022-09-09T02:32:23;98310;;;16.7;100
51195;BME280;37259;49.972;19.850;2022-09-09T02:33:24;98310;;;16.7;100
51195;BME280;37259;49.972;19.850;2022-09-09T02:34:23;98310;;;16.7;100
51195;BME280;37259;49.972;19.850;2022-09-09T02:35:23;98320;;;16.7;100
51195;BME280;37259;49.972;19.850;2022-09-09T02:36:24;98320;;;16.6;100
51195;BME280;37259;49.972;19.850;2022-09-09T02:37:24;98320;;;16.6;100
51195;BME280;37259;49.972;19.850;2022-09-09T02:38:24;98320;;;16.6;100
51195;BME280;37259;49.972;19.850;2022-09-09T02:39:23;98330;;;16.6;100
51195;BME280;37259;49.972;19.850;2022-09-09T02:40:23;98330;;;16.6;100
51195;BME280;37259;49.972;19.850;2022-09-09T02:41:24;98330;;;16.7;100
51195;BME280;37259;49.972;19.850;2022-09-09T02:42:23;98330;;;16.7;100
51195;BME280;37259;49.972;19.850;2022-09-09T02:43:23;98330;;;16.7;100
51195;BME280;37259;49.972;19.850;2022-09-09T02:44:23;98330;;;16.7;100
51195;BME280;37259;49.972;19.850;2022-09-09T02:45:24;98330;;;16.7;100
51195;BME280;37259;49.972;19.850;2022-09-09T02:46:27;98330;;;16.7;100
51195;BME280;37259;49.972;19.850;2022-09-09T02:47:25;98340;;;16.6;100
51195;BME280;37259;49.972;19.850;2022-09-09T02:48:25;98340;;;16.7;100
51195;BME280;37259;49.972;19.850;2022-09-09T02:49:25;98340;;;16.7;100
51195;BME280;37259;49.972;19.850;2022-09-09T02:50:25;98340;;;16.7;100
51195;BME280;37259;49.972;19.850;2022-09-09T02:51:24;98340;;;16.7;100
51195;BME280;37259;49.972;19.850;2022-09-09T02:52:25;98340;;;16.7;100
51195;BME280;37259;49.972;19.850;2022-09-09T02:53:24;98340;;;16.8;100
51195;BME280;37259;49.972;19.850;2022-09-09T02:54:25;98350;;;16.7;100
51195;BME280;37259;49.972;19.850;2022-09-09T02:55:24;98350;;;16.7;100
51195;BME280;37259;49.972;19.850;2022-09-09T02:56:24;98350;;;16.7;100
51195;BME280;37259;49.972;19.850;2022-09-09T02:57:24;98350;;;16.8;100
51195;BME280;37259;49.972;19.850;2022-09-09T02:58:23;98350;;;16.8;100
51195;BME280;37259;49.972;19.850;2022-09-09T02:59:24;98350;;;16.8;100
51195;BME280;37259;49.972;19.850;2022-09-09T03:00:24;98340;;;16.8;100
51195;BME280;37259;49.972;19.850;2022-09-09T03:01:23;98350;;;16.8;100
51195;BME280;37259;49.972;19.850;2022-09-09T03:02:23;98350;;;16.8;100
51195;BME280;37259;49.972;19.850;2022-09-09T03:03:23;98350;;;16.7;100
51195;BME280;37259;49.972;19.850;2022-09-09T03:04:23;98350;;;16.7;100
51195;BME280;37259;49.972;19.850;2022-09-09T03:05:24;98350;;;16.7;100
51195;BME280;37259;49.972;19.850;2022-09-09T03:06:23;98350;;;16.6;100
51195;BME280;37259;49.972;19.850;2022-09-09T03:07:23;98350;;;16.7;100
51195;BME280;37259;49.972;19.850;2022-09-09T03:08:23;98350;;;16.6;100
51195;BME280;37259;49.972;19.850;2022-09-09T03:09:23;98350;;;16.6;100
51195;BME280;37259;49.972;19.850;2022-09-09T03:10:23;98350;;;16.6;100
51195;BME280;37259;49.972;19.850;2022-09-09T03:11:23;98350;;;16.6;100
51195;BME280;37259;49.972;19.850;2022-09-09T03:12:23;98350;;;16.6;100
51195;BME280;37259;49.972;19.850;2022-09-09T03:13:23;98350;;;16.6;100
51195;BME280;37259;49.972;19.850;2022-09-09T03:14:23;98350;;;16.6;100
51195;BME280;37259;49.972;19.850;2022-09-09T03:15:24;98340;;;16.5;100
51195;BME280;37259;49.972;19.850;2022-09-09T03:16:23;98340;;;16.5;100
51195;BME280;37259;49.972;19.850;2022-09-09T03:17:23;98350;;;16.4;100
51195;BME280;37259;49.972;19.850;2022-09-09T03:18:23;98350;;;16.4;100
51195;BME280;37259;49.972;19.850;2022-09-09T03:19:23;98340;;;16.4;100
51195;BME280;37259;49.972;19.850;2022-09-09T03:20:23;98340;;;16.3;100
51195;BME280;37259;49.972;19.850;2022-09-09T03:21:23;98340;;;16.3;100
51195;BME280;37259;49.972;19.850;2022-09-09T03:22:23;98340;;;16.4;100
51195;BME280;37259;49.972;19.850;2022-09-09T03:23:23;98340;;;16.4;100
51195;BME280;37259;49.972;19.850;2022-09-09T03:24:23;98340;;;16.4;100
51195;BME280;37259;49.972;19.850;2022-09-09T03:25:23;98340;;;16.4;100
51195;BME280;37259;49.972;19.850;2022-09-09T03:26:23;98340;;;16.4;100
51195;BME280;37259;49.972;19.850;2022-09-09T03:27:23;98340;;;16.3;100
51195;BME280;37259;49.972;19.850;2022-09-09T03:28:23;98340;;;16.3;100
51195;BME280;37259;49.972;19.850;2022-09-09T03:29:23;98340;;;16.3;100
51195;BME280;37259;49.972;19.850;2022-09-09T03:30:24;98340;;;16.2;100
51195;BME280;37259;49.972;19.850;2022-09-09T03:31:23;98340;;;16.2;100
51195;BME280;37259;49.972;19.850;2022-09-09T03:32:23;98350;;;16.2;100
51195;BME280;37259;49.972;19.850;2022-09-09T03:33:23;98340;;;16.2;100
51195;BME280;37259;49.972;19.850;2022-09-09T03:34:23;98340;;;16.2;100
51195;BME280;37259;49.972;19.850;2022-09-09T03:35:23;98350;;;16.2;100
51195;BME280;37259;49.972;19.850;2022-09-09T03:36:23;98350;;;16.2;100
51195;BME280;37259;49.972;19.850;2022-09-09T03:37:23;98340;;;16.2;100
51195;BME280;37259;49.972;19.850;2022-09-09T03:38:23;98340;;;16.1;100
51195;BME280;37259;49.972;19.850;2022-09-09T03:39:23;98340;;;16.1;100
51195;BME280;37259;49.972;19.850;2022-09-09T03:40:23;98340;;;16;100
51195;BME280;37259;49.972;19.850;2022-09-09T03:41:23;98340;;;16;100
51195;BME280;37259;49.972;19.850;2022-09-09T03:42:23;98340;;;16;100
51195;BME280;37259;49.972;19.850;2022-09-09T03:43:24;98340;;;16;100
51195;BME280;37259;49.972;19.850;2022-09-09T03:44:23;98340;;;16;100
51195;BME280;37259;49.972;19.850;2022-09-09T03:45:23;98340;;;16;100
51195;BME280;37259;49.972;19.850;2022-09-09T03:46:24;98350;;;15.9;100
51195;BME280;37259;49.972;19.850;2022-09-09T03:47:23;98350;;;15.9;100
51195;BME280;37259;49.972;19.850;2022-09-09T03:48:24;98350;;;15.9;100
51195;BME280;37259;49.972;19.850;2022-09-09T03:49:23;98350;;;15.9;100
51195;BME280;37259;49.972;19.850;2022-09-09T03:50:23;98350;;;15.9;100
51195;BME280;37259;49.972;19.850;2022-09-09T03:51:23;98350;;;15.9;100
51195;BME280;37259;49.972;19.850;2022-09-09T03:52:23;98350;;;15.9;100
51195;BME280;37259;49.972;19.850;2022-09-09T03:53:23;98350;;;15.9;100
51195;BME280;37259;49.972;19.850;2022-09-09T03:54:23;98350;;;15.9;100
51195;BME280;37259;49.972;19.850;2022-09-09T03:55:23;98350;;;15.9;100
51195;BME280;37259;49.972;19.850;2022-09-09T03:56:24;98360;;;15.9;100
51195;BME280;37259;49.972;19.850;2022-09-09T03:57:23;98360;;;15.9;100
51195;BME280;37259;49.972;19.850;2022-09-09T03:58:23;98360;;;15.9;100
51195;BME280;37259;49.972;19.850;2022-09-09T03:59:23;98360;;;16;100
51195;BME280;37259;49.972;19.850;2022-09-09T04:00:23;98360;;;16;100
51195;BME280;37259;49.972;19.850;2022-09-09T04:01:23;98360;;;15.9;100
51195;BME280;37259;49.972;19.850;2022-09-09T04:02:23;98360;;;15.8;100
51195;BME280;37259;49.972;19.850;2022-09-09T04:03:24;98360;;;15.8;100
51195;BME280;37259;49.972;19.850;2022-09-09T04:04:23;98360;;;15.9;100
51195;BME280;37259;49.972;19.850;2022-09-09T04:05:24;98360;;;15.9;100
51195;BME280;37259;49.972;19.850;2022-09-09T04:06:23;98360;;;15.9;100
51195;BME280;37259;49.972;19.850;2022-09-09T04:07:23;98360;;;15.9;100
51195;BME280;37259;49.972;19.850;2022-09-09T04:08:23;98370;;;15.9;100
51195;BME280;37259;49.972;19.850;2022-09-09T04:09:23;98370;;;15.9;100
51195;BME280;37259;49.972;19.850;2022-09-09T04:10:23;98370;;;15.9;100
51195;BME280;37259;49.972;19.850;2022-09-09T04:11:23;98360;;;16;100
51195;BME280;37259;49.972;19.850;2022-09-09T04:12:23;98360;;;16;100
51195;BME280;37259;49.972;19.850;2022-09-09T04:13:23;98370;;;16;100
51195;BME280;37259;49.972;19.850;2022-09-09T04:14:24;98370;;;16;100
51195;BME280;37259;49.972;19.850;2022-09-09T04:15:23;98360;;;16;100
51195;BME280;37259;49.972;19.850;2022-09-09T04:16:24;98360;;;16;100
51195;BME280;37259;49.972;19.850;2022-09-09T04:17:23;98370;;;15.9;100
51195;BME280;37259;49.972;19.850;2022-09-09T04:18:24;98370;;;15.9;100
51195;BME280;37259;49.972;19.850;2022-09-09T04:19:23;98370;;;15.9;100
51195;BME280;37259;49.972;19.850;2022-09-09T04:20:23;98370;;;15.9;100
51195;BME280;37259;49.972;19.850;2022-09-09T04:21:23;98370;;;15.9;100
51195;BME280;37259;49.972;19.850;2022-09-09T04:22:23;98370;;;15.9;100
51195;BME280;37259;49.972;19.850;2022-09-09T04:23:23;98370;;;15.9;100
51195;BME280;37259;49.972;19.850;2022-09-09T04:24:23;98360;;;15.9;100
51195;BME280;37259;49.972;19.850;2022-09-09T04:25:23;98360;;;15.9;100
51195;BME280;37259;49.972;19.850;2022-09-09T04:26:23;98360;;;15.9;100
51195;BME280;37259;49.972;19.850;2022-09-09T04:27:23;98360;;;15.9;100
51195;BME280;37259;49.972;19.850;2022-09-09T04:28:24;98360;;;16;100
51195;BME280;37259;49.972;19.850;2022-09-09T04:29:23;98360;;;16;100
51195;BME280;37259;49.972;19.850;2022-09-09T04:30:24;98360;;;16;100
51195;BME280;37259;49.972;19.850;2022-09-09T04:31:23;98360;;;16;100
51195;BME280;37259;49.972;19.850;2022-09-09T04:32:23;98360;;;15.9;100
51195;BME280;37259;49.972;19.850;2022-09-09T04:33:24;98360;;;15.9;100
51195;BME280;37259;49.972;19.850;2022-09-09T04:34:23;98360;;;15.9;100
51195;BME280;37259;49.972;19.850;2022-09-09T04:35:23;98360;;;16;100
51195;BME280;37259;49.972;19.850;2022-09-09T04:36:23;98360;;;16;100
51195;BME280;37259;49.972;19.850;2022-09-09T04:37:23;98360;;;16.1;100
51195;BME280;37259;49.972;19.850;2022-09-09T04:38:23;98360;;;16.1;100
51195;BME280;37259;49.972;19.850;2022-09-09T04:39:23;98350;;;16.1;100
51195;BME280;37259;49.972;19.850;2022-09-09T04:40:23;98360;;;16.2;100
51195;BME280;37259;49.972;19.850;2022-09-09T04:41:23;98360;;;16.2;100
51195;BME280;37259;49.972;19.850;2022-09-09T04:42:23;98360;;;16.2;100
51195;BME280;37259;49.972;19.850;2022-09-09T04:43:23;98360;;;16.3;100
51195;BME280;37259;49.972;19.850;2022-09-09T04:44:23;98360;;;16.3;100
51195;BME280;37259;49.972;19.850;2022-09-09T04:45:23;98360;;;16.3;100
51195;BME280;37259;49.972;19.850;2022-09-09T04:46:23;98360;;;16.4;100
51195;BME280;37259;49.972;19.850;2022-09-09T04:47:23;98360;;;16.4;100
51195;BME280;37259;49.972;19.850;2022-09-09T04:48:23;98360;;;16.4;100
51195;BME280;37259;49.972;19.850;2022-09-09T04:49:23;98360;;;16.4;100
51195;BME280;37259;49.972;19.850;2022-09-09T04:50:23;98360;;;16.4;100
51195;BME280;37259;49.972;19.850;2022-09-09T04:51:23;98360;;;16.4;100
51195;BME280;37259;49.972;19.850;2022-09-09T04:52:23;98360;;;16.4;100
51195;BME280;37259;49.972;19.850;2022-09-09T04:53:24;98360;;;16.4;100
51195;BME280;37259;49.972;19.850;2022-09-09T04:54:23;98370;;;16.4;100
51195;BME280;37259;49.972;19.850;2022-09-09T04:55:23;98370;;;16.4;100
51195;BME280;37259;49.972;19.850;2022-09-09T04:56:23;98370;;;16.5;100
51195;BME280;37259;49.972;19.850;2022-09-09T04:57:23;98370;;;16.5;100
51195;BME280;37259;49.972;19.850;2022-09-09T04:58:23;98370;;;16.4;100
51195;BME280;37259;49.972;19.850;2022-09-09T04:59:23;98370;;;16.4;100
51195;BME280;37259;49.972;19.850;2022-09-09T05:00:23;98370;;;16.4;100
51195;BME280;37259;49.972;19.850;2022-09-09T05:01:23;98370;;;16.4;100
51195;BME280;37259;49.972;19.850;2022-09-09T05:02:23;98380;;;16.5;100
51195;BME280;37259;49.972;19.850;2022-09-09T05:03:23;98380;;;16.5;100
51195;BME280;37259;49.972;19.850;2022-09-09T05:04:23;98390;;;16.5;100
51195;BME280;37259;49.972;19.850;2022-09-09T05:05:23;98380;;;16.5;100
51195;BME280;37259;49.972;19.850;2022-09-09T05:06:23;98380;;;16.5;100
51195;BME280;37259;49.972;19.850;2022-09-09T05:07:23;98390;;;16.6;100
51195;BME280;37259;49.972;19.850;2022-09-09T05:08:23;98390;;;16.6;100
51195;BME280;37259;49.972;19.850;2022-09-09T05:09:23;98390;;;16.5;100
51195;BME280;37259;49.972;19.850;2022-09-09T05:10:23;98390;;;16.5;100
51195;BME280;37259;49.972;19.850;2022-09-09T05:11:24;98390;;;16.6;100
51195;BME280;37259;49.972;19.850;2022-09-09T05:12:23;98390;;;16.6;100
51195;BME280;37259;49.972;19.850;2022-09-09T05:13:23;98390;;;16.6;100
51195;BME280;37259;49.972;19.850;2022-09-09T05:14:23;98390;;;16.7;100
51195;BME280;37259;49.972;19.850;2022-09-09T05:15:23;98390;;;16.8;100
51195;BME280;37259;49.972;19.850;2022-09-09T05:16:23;98390;;;16.8;100
51195;BME280;37259;49.972;19.850;2022-09-09T05:17:23;98390;;;16.8;100
51195;BME280;37259;49.972;19.850;2022-09-09T05:18:23;98390;;;16.9;100
51195;BME280;37259;49.972;19.850;2022-09-09T05:19:23;98390;;;16.9;100
51195;BME280;37259;49.972;19.850;2022-09-09T05:20:23;98390;;;16.9;100
51195;BME280;37259;49.972;19.850;2022-09-09T05:21:25;98390;;;16.9;100
51195;BME280;37259;49.972;19.850;2022-09-09T05:22:23;98390;;;16.9;100
51195;BME280;37259;49.972;19.850;2022-09-09T05:23:23;98390;;;16.9;100
51195;BME280;37259;49.972;19.850;2022-09-09T05:24:23;98390;;;16.9;100
51195;BME280;37259;49.972;19.850;2022-09-09T05:25:24;98390;;;16.9;100
51195;BME280;37259;49.972;19.850;2022-09-09T05:26:23;98390;;;16.9;100
51195;BME280;37259;49.972;19.850;2022-09-09T05:27:23;98390;;;16.9;100
51195;BME280;37259;49.972;19.850;2022-09-09T05:28:23;98390;;;16.9;100
51195;BME280;37259;49.972;19.850;2022-09-09T05:29:23;98390;;;16.9;100
51195;BME280;37259;49.972;19.850;2022-09-09T05:30:23;98390;;;16.9;100
51195;BME280;37259;49.972;19.850;2022-09-09T05:31:23;98390;;;17;100
51195;BME280;37259;49.972;19.850;2022-09-09T05:32:23;98390;;;17;100
51195;BME280;37259;49.972;19.850;2022-09-09T05:33:24;98390;;;16.9;100
51195;BME280;37259;49.972;19.850;2022-09-09T05:34:23;98390;;;16.9;100
51195;BME280;37259;49.972;19.850;2022-09-09T05:35:23;98390;;;16.8;100
51195;BME280;37259;49.972;19.850;2022-09-09T05:36:23;98390;;;16.8;100
51195;BME280;37259;49.972;19.850;2022-09-09T05:37:23;98390;;;16.8;100
51195;BME280;37259;49.972;19.850;2022-09-09T05:38:23;98390;;;16.8;100
51195;BME280;37259;49.972;19.850;2022-09-09T05:39:23;98390;;;16.9;100
51195;BME280;37259;49.972;19.850;2022-09-09T05:40:23;98390;;;16.9;100
51195;BME280;37259;49.972;19.850;2022-09-09T05:41:23;98400;;;16.9;100
51195;BME280;37259;49.972;19.850;2022-09-09T05:42:23;98400;;;16.9;100
51195;BME280;37259;49.972;19.850;2022-09-09T05:43:24;98400;;;16.9;100
51195;BME280;37259;49.972;19.850;2022-09-09T05:44:23;98390;;;16.9;100
51195;BME280;37259;49.972;19.850;2022-09-09T05:45:23;98390;;;16.9;100
51195;BME280;37259;49.972;19.850;2022-09-09T05:46:24;98400;;;17;100
51195;BME280;37259;49.972;19.850;2022-09-09T05:47:23;98400;;;17;100
51195;BME280;37259;49.972;19.850;2022-09-09T05:48:23;98400;;;17;100
51195;BME280;37259;49.972;19.850;2022-09-09T05:49:23;98400;;;17;100